Terminal Aerodrome Forecast
Issued by NWS

Home | Current Version | Previous Version | Text Only | Print | Product List | Glossary On
Versions: 1 2 3 4 5 6 7 8 9 10 11 12 13 14 15 16 17 18 19 20 21 22 23 24 25 26 27 28 29 30 31 32 33 34 35 36 37 38 39 40 41 42 43 44 45 46 47 48 49 50
000
FTUS44 KFWD 180532
TAFFTW
TAF
KFTW 180532Z 1806/1906 02004KT P6SM SCT250
     FM181200 15006KT 4SM BR SCT006 BKN012
     FM181500 18017KT P6SM BKN040 BKN250
     FM190300 27012KT P6SM BKN050 BKN250=

USA.gov is the U.S. government's official web portal to all federal, state and local government web resources and services.